Zeus — V2OR — position and weather

sailwx.info

Track history (hours):
 
Tides and Currents Weather Stations Pressure Air Temp Water Temp Dewpoint Dewpoint Depression Visibility Wind Speed Wind Dir Waves Ship Positions

Zeus

Last reported at 2016-Aug-24 15:33 UTC. Time now 2016-Aug-24 16:17 UTC.
Position N 61°58' W 008°24'.

Length 89 m; draft 3.8 m.

Type: Tanker. MMSI: 304011025.

Date/timePositionNaut miles runAvg speedWind from/ knotsBaromVisibWave heightAir tempDewpointWater temp
2016-Aug-24 15:33N 61°58' W 008°24'1111.0
2016-Aug-24 14:33N 62°07' W 008°39'1010.0
2016-Aug-24 13:33N 62°15' W 008°51'10 9.9
2016-Aug-24 12:33N 62°23' W 009°04'1010.1
2016-Aug-24 11:33N 62°31' W 009°18'  
2016-Aug-21 07:04N 63°12' W 007°31'611.5
2016-Aug-21 06:33N 63°09' W 007°20'1211.8
2016-Aug-21 05:33N 63°03' W 006°58'1111.3
2016-Aug-21 04:33N 62°57' W 006°37'1111.0
2016-Aug-21 03:33N 62°51' W 006°16'1010.4
2016-Aug-21 02:33N 62°45' W 005°57'1110.5
2016-Aug-21 01:34N 62°40' W 005°38'1110.7
2016-Aug-21 00:33N 62°34' W 005°19'1010.4
2016-Aug-20 23:33N 62°28' W 005°00'1110.7
2016-Aug-20 22:33N 62°21' W 004°42'1211.4
2016-Aug-20 21:33N 62°14' W 004°22'31511.2
2016-Aug-19 17:29N 59°12' E 004°24'1111.2
2016-Aug-19 16:32N 59°06' E 004°41'1111.6
2016-Aug-19 15:33N 58°59' E 004°58'1111.4
2016-Aug-19 14:33N 58°52' E 005°15'4 3.9
2016-Aug-19 13:31N 58°49' E 005°22'0 0.0
2016-Aug-19 12:33N 58°49' E 005°22'0 0.0
2016-Aug-19 11:31N 58°49' E 005°22'0 0.0
2016-Aug-19 10:31N 58°49' E 005°22'0 0.0
2016-Aug-19 09:25N 58°49' E 005°22'0 0.0
2016-Aug-19 08:33N 58°49' E 005°22'0 0.0
2016-Aug-19 07:28N 58°49' E 005°22'0 0.0
2016-Aug-19 06:33N 58°49' E 005°22'0 0.0
2016-Aug-19 05:29N 58°49' E 005°22'0 0.0
2016-Aug-19 04:32N 58°49' E 005°22'0 0.0
2016-Aug-19 03:33N 58°49' E 005°22'0 0.0
2016-Aug-19 02:32N 58°49' E 005°22'0 0.0
2016-Aug-19 01:32N 58°49' E 005°22'3 3.2
2016-Aug-19 00:33N 58°46' E 005°22'8 8.1
2016-Aug-18 23:33N 58°39' E 005°27'1311.5
2016-Aug-18 22:25N 58°28' E 005°42'1011.2
2016-Aug-18 21:32N 58°21' E 005°55'1211.7
2016-Aug-18 20:33N 58°14' E 006°12'1211.8
2016-Aug-18 19:33N 58°06' E 006°29'1110.8
2016-Aug-18 18:33N 58°00' E 006°46'1210.4
2016-Aug-18 17:23N 57°57' E 007°08'41 1.2
2016-Aug-17 08:29N 58°08' E 008°22'1011.2
2016-Aug-17 07:34N 58°14' E 008°38'1511.3
2016-Aug-17 06:15N 58°23' E 009°01'811.5
2016-Aug-17 05:33N 58°28' E 009°13'1111.1
2016-Aug-17 04:33N 58°35' E 009°30'1111.1
2016-Aug-17 03:33N 58°42' E 009°46'1211.6
2016-Aug-17 02:33N 58°49' E 010°04'1211.8
2016-Aug-17 01:33N 58°56' E 010°23'1010.4
2016-Aug-17 00:34N 59°05' E 010°33'1010.5
2016-Aug-16 23:34N 59°15' E 010°35'10 9.9
2016-Aug-16 22:32N 59°25' E 010°30'0 0.0
2016-Aug-16 21:31N 59°25' E 010°30'0 0.0
2016-Aug-16 20:32N 59°25' E 010°30'0 0.0
2016-Aug-16 19:31N 59°25' E 010°30'0 0.0
2016-Aug-16 18:31N 59°25' E 010°30'0 0.0
2016-Aug-16 17:30N 59°25' E 010°30'0 0.0
2016-Aug-16 16:27N 59°25' E 010°30'0 0.0
2016-Aug-16 15:31N 59°25' E 010°30'0 0.0
2016-Aug-16 14:31N 59°25' E 010°30'0 0.0
2016-Aug-16 13:29N 59°25' E 010°30'0 0.0
2016-Aug-16 12:32N 59°25' E 010°30'0 0.0
2016-Aug-16 11:33N 59°25' E 010°30'0 0.0
2016-Aug-16 10:33N 59°25' E 010°30'0 0.0
2016-Aug-16 09:32N 59°25' E 010°30'0 0.0
2016-Aug-16 08:31N 59°25' E 010°30'0 0.0
2016-Aug-16 07:31N 59°25' E 010°30'0 0.0
2016-Aug-16 04:33N 59°25' E 010°30'0 0.0
2016-Aug-16 03:33N 59°25' E 010°30'0 0.0
2016-Aug-16 02:33N 59°25' E 010°30'0 0.0
2016-Aug-16 01:33N 59°25' E 010°30'0 0.0
2016-Aug-16 00:33N 59°25' E 010°30'0 0.0
2016-Aug-15 23:33N 59°25' E 010°30'0 0.0
2016-Aug-15 22:33N 59°25' E 010°30'0 0.0
2016-Aug-15 21:33N 59°25' E 010°30'0 0.0
2016-Aug-15 20:33N 59°25' E 010°30'0 0.0
2016-Aug-15 19:33N 59°25' E 010°30'0 0.0
2016-Aug-15 18:33N 59°25' E 010°30'0 0.0
2016-Aug-15 17:33N 59°25' E 010°30'4 4.5
2016-Aug-15 16:33N 59°22' E 010°36'1110.9
2016-Aug-15 15:33N 59°12' E 010°44'7 7.2
2016-Aug-15 14:34N 59°10' E 010°57'2 1.5
2016-Aug-15 13:32N 59°11' E 010°57'0 0.0
2016-Aug-15 12:31N 59°11' E 010°57'0 0.0
2016-Aug-15 11:22N 59°11' E 010°57'0 0.0
2016-Aug-15 10:32N 59°11' E 010°57'0 0.0
2016-Aug-15 09:31N 59°11' E 010°57'0 0.0
2016-Aug-15 08:32N 59°11' E 010°57'0 0.0
2016-Aug-15 07:32N 59°11' E 010°57'0 0.0
2016-Aug-15 06:29N 59°11' E 010°57'0 0.0
2016-Aug-15 04:31N 59°11' E 010°57'0 0.0
2016-Aug-15 03:33N 59°11' E 010°57'0 0.0
2016-Aug-15 02:32N 59°11' E 010°57'0 0.0
2016-Aug-15 01:31N 59°11' E 010°57'0 0.0
2016-Aug-15 00:26N 59°11' E 010°57'0 0.0
2016-Aug-14 23:32N 59°11' E 010°57'0 0.0
2016-Aug-14 22:32N 59°11' E 010°57'0 0.0
2016-Aug-14 21:31N 59°11' E 010°57'0 0.0
2016-Aug-14 20:32N 59°11' E 010°57'0 0.0
2016-Aug-14 19:31N 59°11' E 010°57'0 0.0
2016-Aug-14 18:33N 59°11' E 010°57'0 0.0
2016-Aug-14 17:33N 59°11' E 010°57'0 0.0
2016-Aug-14 16:31N 59°11' E 010°57'  
Track history (hours):
 
Tides and Currents Weather Stations Pressure Air Temp Water Temp Dewpoint Dewpoint Depression Visibility Wind Speed Wind Dir Waves Ship Positions

Zeus

Last reported at 2016-Aug-24 15:33 UTC. Time now 2016-Aug-24 16:17 UTC.
Position N 61°58' W 008°24'.

Length 89 m; draft 3.8 m.

Type: Tanker. MMSI: 304011025.

Date/timePositionNaut miles runAvg speedWind from/ knotsBaromVisibWave heightAir tempDewpointWater temp
2016-Aug-24 15:33N 61°58' W 008°24'1111.0
2016-Aug-24 14:33N 62°07' W 008°39'1010.0
2016-Aug-24 13:33N 62°15' W 008°51'10 9.9
2016-Aug-24 12:33N 62°23' W 009°04'1010.1
2016-Aug-24 11:33N 62°31' W 009°18'  
2016-Aug-21 07:04N 63°12' W 007°31'611.5
2016-Aug-21 06:33N 63°09' W 007°20'1211.8
2016-Aug-21 05:33N 63°03' W 006°58'1111.3
2016-Aug-21 04:33N 62°57' W 006°37'1111.0
2016-Aug-21 03:33N 62°51' W 006°16'1010.4
2016-Aug-21 02:33N 62°45' W 005°57'1110.5
2016-Aug-21 01:34N 62°40' W 005°38'1110.7
2016-Aug-21 00:33N 62°34' W 005°19'1010.4
2016-Aug-20 23:33N 62°28' W 005°00'1110.7
2016-Aug-20 22:33N 62°21' W 004°42'1211.4
2016-Aug-20 21:33N 62°14' W 004°22'31511.2
2016-Aug-19 17:29N 59°12' E 004°24'1111.2
2016-Aug-19 16:32N 59°06' E 004°41'1111.6
2016-Aug-19 15:33N 58°59' E 004°58'1111.4
2016-Aug-19 14:33N 58°52' E 005°15'4 3.9
2016-Aug-19 13:31N 58°49' E 005°22'0 0.0
2016-Aug-19 12:33N 58°49' E 005°22'0 0.0
2016-Aug-19 11:31N 58°49' E 005°22'0 0.0
2016-Aug-19 10:31N 58°49' E 005°22'0 0.0
2016-Aug-19 09:25N 58°49' E 005°22'0 0.0
2016-Aug-19 08:33N 58°49' E 005°22'0 0.0
2016-Aug-19 07:28N 58°49' E 005°22'0 0.0
2016-Aug-19 06:33N 58°49' E 005°22'0 0.0
2016-Aug-19 05:29N 58°49' E 005°22'0 0.0
2016-Aug-19 04:32N 58°49' E 005°22'0 0.0
2016-Aug-19 03:33N 58°49' E 005°22'0 0.0
2016-Aug-19 02:32N 58°49' E 005°22'0 0.0
2016-Aug-19 01:32N 58°49' E 005°22'3 3.2
2016-Aug-19 00:33N 58°46' E 005°22'8 8.1
2016-Aug-18 23:33N 58°39' E 005°27'1311.5
2016-Aug-18 22:25N 58°28' E 005°42'1011.2
2016-Aug-18 21:32N 58°21' E 005°55'1211.7
2016-Aug-18 20:33N 58°14' E 006°12'1211.8
2016-Aug-18 19:33N 58°06' E 006°29'1110.8
2016-Aug-18 18:33N 58°00' E 006°46'1210.4
2016-Aug-18 17:23N 57°57' E 007°08'41 1.2
2016-Aug-17 08:29N 58°08' E 008°22'1011.2
2016-Aug-17 07:34N 58°14' E 008°38'1511.3
2016-Aug-17 06:15N 58°23' E 009°01'811.5
2016-Aug-17 05:33N 58°28' E 009°13'1111.1
2016-Aug-17 04:33N 58°35' E 009°30'1111.1
2016-Aug-17 03:33N 58°42' E 009°46'1211.6
2016-Aug-17 02:33N 58°49' E 010°04'1211.8
2016-Aug-17 01:33N 58°56' E 010°23'1010.4
2016-Aug-17 00:34N 59°05' E 010°33'1010.5
2016-Aug-16 23:34N 59°15' E 010°35'10 9.9
2016-Aug-16 22:32N 59°25' E 010°30'0 0.0
2016-Aug-16 21:31N 59°25' E 010°30'0 0.0
2016-Aug-16 20:32N 59°25' E 010°30'0 0.0
2016-Aug-16 19:31N 59°25' E 010°30'0 0.0
2016-Aug-16 18:31N 59°25' E 010°30'0 0.0
2016-Aug-16 17:30N 59°25' E 010°30'0 0.0
2016-Aug-16 16:27N 59°25' E 010°30'0 0.0
2016-Aug-16 15:31N 59°25' E 010°30'0 0.0
2016-Aug-16 14:31N 59°25' E 010°30'0 0.0
2016-Aug-16 13:29N 59°25' E 010°30'0 0.0
2016-Aug-16 12:32N 59°25' E 010°30'0 0.0
2016-Aug-16 11:33N 59°25' E 010°30'0 0.0
2016-Aug-16 10:33N 59°25' E 010°30'0 0.0
2016-Aug-16 09:32N 59°25' E 010°30'0 0.0
2016-Aug-16 08:31N 59°25' E 010°30'0 0.0
2016-Aug-16 07:31N 59°25' E 010°30'0 0.0
2016-Aug-16 04:33N 59°25' E 010°30'0 0.0
2016-Aug-16 03:33N 59°25' E 010°30'0 0.0
2016-Aug-16 02:33N 59°25' E 010°30'0 0.0
2016-Aug-16 01:33N 59°25' E 010°30'0 0.0
2016-Aug-16 00:33N 59°25' E 010°30'0 0.0
2016-Aug-15 23:33N 59°25' E 010°30'0 0.0
2016-Aug-15 22:33N 59°25' E 010°30'0 0.0
2016-Aug-15 21:33N 59°25' E 010°30'0 0.0
2016-Aug-15 20:33N 59°25' E 010°30'0 0.0
2016-Aug-15 19:33N 59°25' E 010°30'0 0.0
2016-Aug-15 18:33N 59°25' E 010°30'0 0.0
2016-Aug-15 17:33N 59°25' E 010°30'4 4.5
2016-Aug-15 16:33N 59°22' E 010°36'1110.9
2016-Aug-15 15:33N 59°12' E 010°44'7 7.2
2016-Aug-15 14:34N 59°10' E 010°57'2 1.5
2016-Aug-15 13:32N 59°11' E 010°57'0 0.0
2016-Aug-15 12:31N 59°11' E 010°57'0 0.0
2016-Aug-15 11:22N 59°11' E 010°57'0 0.0
2016-Aug-15 10:32N 59°11' E 010°57'0 0.0
2016-Aug-15 09:31N 59°11' E 010°57'0 0.0
2016-Aug-15 08:32N 59°11' E 010°57'0 0.0
2016-Aug-15 07:32N 59°11' E 010°57'0 0.0
2016-Aug-15 06:29N 59°11' E 010°57'0 0.0
2016-Aug-15 04:31N 59°11' E 010°57'0 0.0
2016-Aug-15 03:33N 59°11' E 010°57'0 0.0
2016-Aug-15 02:32N 59°11' E 010°57'0 0.0
2016-Aug-15 01:31N 59°11' E 010°57'0 0.0
2016-Aug-15 00:26N 59°11' E 010°57'0 0.0
2016-Aug-14 23:32N 59°11' E 010°57'0 0.0
2016-Aug-14 22:32N 59°11' E 010°57'0 0.0
2016-Aug-14 21:31N 59°11' E 010°57'0 0.0
2016-Aug-14 20:32N 59°11' E 010°57'0 0.0
2016-Aug-14 19:31N 59°11' E 010°57'0 0.0
2016-Aug-14 18:33N 59°11' E 010°57'0 0.0
2016-Aug-14 17:33N 59°11' E 010°57'0 0.0
2016-Aug-14 16:31N 59°11' E 010°57'  

Dump ship's entire track history